sensor_id;sensor_type;location;lat;lon;timestamp;pressure;altitude;pressure_sealevel;temperature;humidity
65190;BME280;51777;53.570;9.984;2023-09-08T00:00:40;101890.31;;;20.74;100.00
65190;BME280;51777;53.570;9.984;2023-09-08T00:03:06;101880.50;;;20.68;100.00
65190;BME280;51777;53.570;9.984;2023-09-08T00:05:31;101883.75;;;20.70;100.00
65190;BME280;51777;53.570;9.984;2023-09-08T00:07:56;101871.91;;;20.74;100.00
65190;BME280;51777;53.570;9.984;2023-09-08T00:10:22;101884.22;;;20.73;100.00
65190;BME280;51777;53.570;9.984;2023-09-08T00:12:47;101879.44;;;20.62;100.00
65190;BME280;51777;53.570;9.984;2023-09-08T00:15:13;101883.94;;;20.68;100.00
65190;BME280;51777;53.570;9.984;2023-09-08T00:17:38;101881.69;;;20.65;100.00
65190;BME280;51777;53.570;9.984;2023-09-08T00:20:06;101877.53;;;20.56;100.00
65190;BME280;51777;53.570;9.984;2023-09-08T00:22:35;101871.94;;;20.59;100.00
65190;BME280;51777;53.570;9.984;2023-09-08T00:25:01;101874.81;;;20.64;100.00
65190;BME280;51777;53.570;9.984;2023-09-08T00:27:26;101877.44;;;20.64;100.00
65190;BME280;51777;53.570;9.984;2023-09-08T00:29:51;101879.47;;;20.47;100.00
65190;BME280;51777;53.570;9.984;2023-09-08T00:32:17;101877.09;;;20.52;100.00
65190;BME280;51777;53.570;9.984;2023-09-08T00:34:42;101869.28;;;20.44;100.00
65190;BME280;51777;53.570;9.984;2023-09-08T00:37:07;101862.88;;;20.47;100.00
65190;BME280;51777;53.570;9.984;2023-09-08T00:39:35;101862.06;;;20.46;100.00
65190;BME280;51777;53.570;9.984;2023-09-08T00:42:01;101853.88;;;20.41;100.00
65190;BME280;51777;53.570;9.984;2023-09-08T00:44:27;101854.44;;;20.37;100.00
65190;BME280;51777;53.570;9.984;2023-09-08T00:46:52;101852.53;;;20.31;100.00
65190;BME280;51777;53.570;9.984;2023-09-08T00:49:17;101842.81;;;20.31;100.00
65190;BME280;51777;53.570;9.984;2023-09-08T00:51:43;101842.50;;;20.34;100.00
65190;BME280;51777;53.570;9.984;2023-09-08T00:54:09;101842.00;;;20.31;100.00
65190;BME280;51777;53.570;9.984;2023-09-08T00:56:37;101845.44;;;20.31;100.00
65190;BME280;51777;53.570;9.984;2023-09-08T00:59:04;101840.81;;;20.33;100.00
65190;BME280;51777;53.570;9.984;2023-09-08T01:01:30;101841.66;;;20.19;100.00
65190;BME280;51777;53.570;9.984;2023-09-08T01:03:56;101839.66;;;20.21;100.00
65190;BME280;51777;53.570;9.984;2023-09-08T01:06:22;101841.31;;;20.22;100.00
65190;BME280;51777;53.570;9.984;2023-09-08T01:08:48;101836.69;;;20.24;100.00
65190;BME280;51777;53.570;9.984;2023-09-08T01:11:15;101845.28;;;20.18;100.00
65190;BME280;51777;53.570;9.984;2023-09-08T01:13:40;101839.59;;;20.14;100.00
65190;BME280;51777;53.570;9.984;2023-09-08T01:16:06;101844.66;;;20.16;100.00
65190;BME280;51777;53.570;9.984;2023-09-08T01:18:34;101840.22;;;20.16;100.00
65190;BME280;51777;53.570;9.984;2023-09-08T01:24:06;101841.03;;;20.17;100.00
65190;BME280;51777;53.570;9.984;2023-09-08T01:26:37;101841.03;;;20.17;100.00
65190;BME280;51777;53.570;9.984;2023-09-08T01:29:05;101841.03;;;20.17;100.00
65190;BME280;51777;53.570;9.984;2023-09-08T01:31:31;101838.84;;;20.20;100.00
65190;BME280;51777;53.570;9.984;2023-09-08T01:33:56;101840.59;;;20.13;100.00
65190;BME280;51777;53.570;9.984;2023-09-08T01:36:22;101848.97;;;20.09;100.00
65190;BME280;51777;53.570;9.984;2023-09-08T01:38:47;101838.03;;;20.05;100.00
65190;BME280;51777;53.570;9.984;2023-09-08T01:41:13;101842.09;;;20.08;100.00
65190;BME280;51777;53.570;9.984;2023-09-08T01:43:38;101835.41;;;20.05;100.00
65190;BME280;51777;53.570;9.984;2023-09-08T01:46:03;101837.22;;;20.05;100.00
65190;BME280;51777;53.570;9.984;2023-09-08T01:48:29;101835.78;;;20.02;100.00
65190;BME280;51777;53.570;9.984;2023-09-08T01:50:54;101834.34;;;20.00;100.00
65190;BME280;51777;53.570;9.984;2023-09-08T01:53:20;101833.03;;;19.95;100.00
65190;BME280;51777;53.570;9.984;2023-09-08T01:55:45;101830.78;;;19.92;100.00
65190;BME280;51777;53.570;9.984;2023-09-08T01:58:10;101828.53;;;19.89;100.00
65190;BME280;51777;53.570;9.984;2023-09-08T02:00:36;101826.47;;;19.85;100.00
65190;BME280;51777;53.570;9.984;2023-09-08T02:03:01;101836.84;;;19.78;100.00
65190;BME280;51777;53.570;9.984;2023-09-08T02:05:26;101828.84;;;19.72;100.00
65190;BME280;51777;53.570;9.984;2023-09-08T02:07:52;101824.06;;;19.60;100.00
65190;BME280;51777;53.570;9.984;2023-09-08T02:10:17;101825.59;;;19.47;100.00
65190;BME280;51777;53.570;9.984;2023-09-08T02:12:43;101823.88;;;19.39;100.00
65190;BME280;51777;53.570;9.984;2023-09-08T02:15:09;101822.53;;;19.43;100.00
65190;BME280;51777;53.570;9.984;2023-09-08T02:17:36;101820.91;;;19.42;100.00
65190;BME280;51777;53.570;9.984;2023-09-08T02:20:01;101826.06;;;19.35;100.00
65190;BME280;51777;53.570;9.984;2023-09-08T02:22:28;101818.81;;;19.38;100.00
65190;BME280;51777;53.570;9.984;2023-09-08T02:24:53;101827.03;;;19.34;100.00
65190;BME280;51777;53.570;9.984;2023-09-08T02:27:19;101828.84;;;19.34;100.00
65190;BME280;51777;53.570;9.984;2023-09-08T02:29:44;101826.69;;;19.38;100.00
65190;BME280;51777;53.570;9.984;2023-09-08T02:32:09;101825.25;;;19.35;100.00
65190;BME280;51777;53.570;9.984;2023-09-08T02:34:37;101823.06;;;19.39;100.00
65190;BME280;51777;53.570;9.984;2023-09-08T02:37:02;101828.38;;;19.30;100.00
65190;BME280;51777;53.570;9.984;2023-09-08T02:39:28;101818.94;;;19.21;100.00
65190;BME280;51777;53.570;9.984;2023-09-08T02:41:53;101821.47;;;19.15;100.00
65190;BME280;51777;53.570;9.984;2023-09-08T02:44:20;101815.63;;;19.04;100.00
65190;BME280;51777;53.570;9.984;2023-09-08T02:46:47;101815.44;;;19.06;100.00
65190;BME280;51777;53.570;9.984;2023-09-08T02:49:12;101822.63;;;19.12;100.00
65190;BME280;51777;53.570;9.984;2023-09-08T02:51:38;101823.50;;;19.04;100.00
65190;BME280;51777;53.570;9.984;2023-09-08T02:54:03;101818.25;;;19.04;100.00
65190;BME280;51777;53.570;9.984;2023-09-08T02:56:29;101826.66;;;19.00;100.00
65190;BME280;51777;53.570;9.984;2023-09-08T02:58:54;101820.06;;;19.04;100.00
65190;BME280;51777;53.570;9.984;2023-09-08T03:01:19;101827.63;;;18.99;100.00
65190;BME280;51777;53.570;9.984;2023-09-08T03:03:46;101824.06;;;18.92;100.00
65190;BME280;51777;53.570;9.984;2023-09-08T03:06:14;101822.63;;;18.89;100.00
65190;BME280;51777;53.570;9.984;2023-09-08T03:08:40;101822.31;;;18.84;100.00
65190;BME280;51777;53.570;9.984;2023-09-08T03:11:06;101813.69;;;18.75;100.00
65190;BME280;51777;53.570;9.984;2023-09-08T03:13:32;101817.97;;;18.68;100.00
65190;BME280;51777;53.570;9.984;2023-09-08T03:16:02;101814.38;;;18.69;100.00
65190;BME280;51777;53.570;9.984;2023-09-08T03:18:28;101813.25;;;18.56;100.00
65190;BME280;51777;53.570;9.984;2023-09-08T03:20:53;101815.25;;;18.54;100.00
65190;BME280;51777;53.570;9.984;2023-09-08T03:23:19;101812.44;;;18.55;100.00
65190;BME280;51777;53.570;9.984;2023-09-08T03:25:44;101805.28;;;18.49;100.00
65190;BME280;51777;53.570;9.984;2023-09-08T03:28:09;101800.72;;;18.43;100.00
65190;BME280;51777;53.570;9.984;2023-09-08T03:30:35;101804.03;;;18.37;100.00
65190;BME280;51777;53.570;9.984;2023-09-08T03:33:00;101799.13;;;18.34;100.00
65190;BME280;51777;53.570;9.984;2023-09-08T03:35:26;101801.28;;;18.22;100.00
65190;BME280;51777;53.570;9.984;2023-09-08T03:37:51;101796.56;;;18.17;100.00
65190;BME280;51777;53.570;9.984;2023-09-08T03:40:17;101798.91;;;18.12;100.00
65190;BME280;51777;53.570;9.984;2023-09-08T03:42:42;101795.47;;;18.12;100.00
65190;BME280;51777;53.570;9.984;2023-09-08T03:45:08;101794.66;;;18.11;100.00
65190;BME280;51777;53.570;9.984;2023-09-08T03:47:33;101790.06;;;18.05;100.00
65190;BME280;51777;53.570;9.984;2023-09-08T03:49:59;101791.25;;;18.03;100.00
65190;BME280;51777;53.570;9.984;2023-09-08T03:52:24;101787.97;;;18.01;100.00
65190;BME280;51777;53.570;9.984;2023-09-08T03:54:50;101792.06;;;18.03;100.00
65190;BME280;51777;53.570;9.984;2023-09-08T03:57:15;101789.28;;;17.97;100.00
65190;BME280;51777;53.570;9.984;2023-09-08T03:59:42;101788.28;;;17.98;100.00
65190;BME280;51777;53.570;9.984;2023-09-08T04:02:07;101789.28;;;17.97;100.00
65190;BME280;51777;53.570;9.984;2023-09-08T04:04:33;101791.06;;;17.96;100.00
65190;BME280;51777;53.570;9.984;2023-09-08T04:06:58;101783.44;;;17.86;100.00
65190;BME280;51777;53.570;9.984;2023-09-08T04:09:23;101789.97;;;17.90;100.00
65190;BME280;51777;53.570;9.984;2023-09-08T04:11:49;101791.94;;;17.88;100.00
65190;BME280;51777;53.570;9.984;2023-09-08T04:14:14;101794.72;;;17.87;100.00
65190;BME280;51777;53.570;9.984;2023-09-08T04:16:40;101786.38;;;17.83;100.00
65190;BME280;51777;53.570;9.984;2023-09-08T04:19:05;101782.63;;;17.86;100.00
65190;BME280;51777;53.570;9.984;2023-09-08T04:21:30;101780.31;;;17.83;100.00
65190;BME280;51777;53.570;9.984;2023-09-08T04:23:56;101777.41;;;17.78;100.00
65190;BME280;51777;53.570;9.984;2023-09-08T04:26:21;101776.13;;;17.74;100.00
65190;BME280;51777;53.570;9.984;2023-09-08T04:28:47;101771.69;;;17.74;100.00
65190;BME280;51777;53.570;9.984;2023-09-08T04:31:12;101768.91;;;17.76;100.00
65190;BME280;51777;53.570;9.984;2023-09-08T04:33:38;101766.94;;;17.70;100.00
65190;BME280;51777;53.570;9.984;2023-09-08T04:36:04;101773.63;;;17.72;100.00
65190;BME280;51777;53.570;9.984;2023-09-08T04:38:29;101769.22;;;17.73;100.00
65190;BME280;51777;53.570;9.984;2023-09-08T04:40:55;101776.13;;;17.74;100.00
65190;BME280;51777;53.570;9.984;2023-09-08T04:43:20;101768.88;;;17.68;100.00
65190;BME280;51777;53.570;9.984;2023-09-08T04:45:46;101769.56;;;17.70;100.00
65190;BME280;51777;53.570;9.984;2023-09-08T04:48:11;101761.72;;;17.70;100.00
65190;BME280;51777;53.570;9.984;2023-09-08T04:50:36;101767.41;;;17.73;100.00
65190;BME280;51777;53.570;9.984;2023-09-08T04:53:02;101762.03;;;17.67;100.00
65190;BME280;51777;53.570;9.984;2023-09-08T04:55:28;101759.75;;;17.72;100.00
65190;BME280;51777;53.570;9.984;2023-09-08T04:57:53;101756.97;;;17.73;100.00
65190;BME280;51777;53.570;9.984;2023-09-08T05:00:19;101759.25;;;17.76;100.00
65190;BME280;51777;53.570;9.984;2023-09-08T05:02:44;101759.72;;;17.80;100.00
65190;BME280;51777;53.570;9.984;2023-09-08T05:05:10;101760.06;;;17.77;100.00
65190;BME280;51777;53.570;9.984;2023-09-08T05:07:35;101764.31;;;17.78;100.00
65190;BME280;51777;53.570;9.984;2023-09-08T05:10:01;101763.81;;;17.82;100.00
65190;BME280;51777;53.570;9.984;2023-09-08T05:12:26;101761.03;;;17.84;100.00
65190;BME280;51777;53.570;9.984;2023-09-08T05:14:52;101760.72;;;17.87;100.00
65190;BME280;51777;53.570;9.984;2023-09-08T05:17:23;101759.06;;;17.86;100.00
65190;BME280;51777;53.570;9.984;2023-09-08T05:19:48;101760.03;;;17.85;100.00
65190;BME280;51777;53.570;9.984;2023-09-08T05:22:14;101756.28;;;17.87;100.00
65190;BME280;51777;53.570;9.984;2023-09-08T05:24:39;101754.97;;;17.92;100.00
65190;BME280;51777;53.570;9.984;2023-09-08T05:27:05;101761.66;;;17.94;100.00
65190;BME280;51777;53.570;9.984;2023-09-08T05:29:31;101755.94;;;17.99;100.00
65190;BME280;51777;53.570;9.984;2023-09-08T05:31:56;101758.19;;;18.02;100.00
65190;BME280;51777;53.570;9.984;2023-09-08T05:34:21;101763.44;;;18.02;100.00
65190;BME280;51777;53.570;9.984;2023-09-08T05:36:47;101752.09;;;18.09;100.00
65190;BME280;51777;53.570;9.984;2023-09-08T05:39:15;101756.53;;;18.09;100.00
65190;BME280;51777;53.570;9.984;2023-09-08T05:41:43;101758.16;;;18.10;100.00
65190;BME280;51777;53.570;9.984;2023-09-08T05:44:09;101751.59;;;18.14;100.00
65190;BME280;51777;53.570;9.984;2023-09-08T05:46:34;101755.34;;;18.19;100.00
65190;BME280;51777;53.570;9.984;2023-09-08T05:48:59;101749.75;;;18.23;100.00
65190;BME280;51777;53.570;9.984;2023-09-08T05:51:25;101741.06;;;18.30;100.00
65190;BME280;51777;53.570;9.984;2023-09-08T05:53:53;101746.75;;;18.34;100.00
65190;BME280;51777;53.570;9.984;2023-09-08T05:56:19;101744.09;;;18.42;100.00
65190;BME280;51777;53.570;9.984;2023-09-08T05:58:45;101734.56;;;18.49;100.00
65190;BME280;51777;53.570;9.984;2023-09-08T06:01:10;101742.09;;;18.52;100.00
65190;BME280;51777;53.570;9.984;2023-09-08T06:03:36;101745.81;;;18.58;100.00
65190;BME280;51777;53.570;9.984;2023-09-08T06:06:01;101747.91;;;18.62;100.00
65190;BME280;51777;53.570;9.984;2023-09-08T06:08:27;101747.41;;;18.67;100.00
65190;BME280;51777;53.570;9.984;2023-09-08T06:10:52;101747.66;;;18.80;100.00
65190;BME280;51777;53.570;9.984;2023-09-08T06:13:17;101744.34;;;18.86;100.00
65190;BME280;51777;53.570;9.984;2023-09-08T06:15:43;101743.44;;;18.94;100.00
65190;BME280;51777;53.570;9.984;2023-09-08T06:18:08;101748.09;;;19.06;100.00
65190;BME280;51777;53.570;9.984;2023-09-08T06:20:34;101755.56;;;19.18;100.00
65190;BME280;51777;53.570;9.984;2023-09-08T06:23:00;101751.25;;;19.25;100.00
65190;BME280;51777;53.570;9.984;2023-09-08T06:25:26;101758.03;;;19.34;100.00
65190;BME280;51777;53.570;9.984;2023-09-08T06:27:53;101756.78;;;19.45;100.00
65190;BME280;51777;53.570;9.984;2023-09-08T06:30:19;101767.00;;;19.54;100.00
65190;BME280;51777;53.570;9.984;2023-09-08T06:32:44;101762.53;;;19.63;100.00
65190;BME280;51777;53.570;9.984;2023-09-08T06:35:10;101767.59;;;19.64;100.00
65190;BME280;51777;53.570;9.984;2023-09-08T06:37:36;101756.28;;;19.64;100.00
65190;BME280;51777;53.570;9.984;2023-09-08T06:40:03;101769.34;;;19.72;100.00
65190;BME280;51777;53.570;9.984;2023-09-08T06:42:29;101765.88;;;19.72;100.00
65190;BME280;51777;53.570;9.984;2023-09-08T06:44:55;101762.34;;;19.79;100.00
65190;BME280;51777;53.570;9.984;2023-09-08T06:47:20;101766.91;;;19.85;100.00
65190;BME280;51777;53.570;9.984;2023-09-08T06:49:45;101768.53;;;19.86;100.00
65190;BME280;51777;53.570;9.984;2023-09-08T06:52:11;101768.22;;;19.96;100.00
65190;BME280;51777;53.570;9.984;2023-09-08T06:54:37;101774.22;;;20.05;100.00
65190;BME280;51777;53.570;9.984;2023-09-08T06:57:02;101776.75;;;20.13;100.00
65190;BME280;51777;53.570;9.984;2023-09-08T06:59:28;101767.78;;;20.22;100.00
65190;BME280;51777;53.570;9.984;2023-09-08T07:01:53;101771.84;;;20.24;100.00
65190;BME280;51777;53.570;9.984;2023-09-08T07:04:19;101766.94;;;20.36;100.00
65190;BME280;51777;53.570;9.984;2023-09-08T07:06:44;101769.13;;;20.47;100.00
65190;BME280;51777;53.570;9.984;2023-09-08T07:09:11;101764.34;;;20.58;100.00
65190;BME280;51777;53.570;9.984;2023-09-08T07:11:37;101769.13;;;20.69;100.00
65190;BME280;51777;53.570;9.984;2023-09-08T07:14:03;101772.25;;;20.79;100.00
65190;BME280;51777;53.570;9.984;2023-09-08T07:16:28;101771.56;;;20.92;100.00
65190;BME280;51777;53.570;9.984;2023-09-08T07:19:03;101767.38;;;20.97;100.00
65190;BME280;51777;53.570;9.984;2023-09-08T07:21:29;101773.19;;;21.14;100.00
65190;BME280;51777;53.570;9.984;2023-09-08T07:23:55;101773.75;;;21.31;100.00
65190;BME280;51777;53.570;9.984;2023-09-08T07:26:21;101772.66;;;21.47;100.00
65190;BME280;51777;53.570;9.984;2023-09-08T07:28:46;101774.56;;;21.59;100.00
65190;BME280;51777;53.570;9.984;2023-09-08T07:31:12;101768.94;;;21.69;100.00
65190;BME280;51777;53.570;9.984;2023-09-08T07:33:38;101768.84;;;21.84;100.00
65190;BME280;51777;53.570;9.984;2023-09-08T07:36:07;101773.50;;;21.88;100.00
65190;BME280;51777;53.570;9.984;2023-09-08T07:38:34;101774.19;;;21.97;100.00
65190;BME280;51777;53.570;9.984;2023-09-08T07:41:01;101781.78;;;22.13;100.00
65190;BME280;51777;53.570;9.984;2023-09-08T07:43:27;101778.56;;;22.24;100.00
65190;BME280;51777;53.570;9.984;2023-09-08T07:45:53;101781.84;;;22.33;100.00
65190;BME280;51777;53.570;9.984;2023-09-08T07:48:18;101779.03;;;22.41;100.00
65190;BME280;51777;53.570;9.984;2023-09-08T07:50:43;101777.44;;;22.47;100.00
65190;BME280;51777;53.570;9.984;2023-09-08T07:53:09;101771.59;;;22.58;100.00
65190;BME280;51777;53.570;9.984;2023-09-08T07:55:35;101767.72;;;22.67;100.00
65190;BME280;51777;53.570;9.984;2023-09-08T07:58:02;101765.53;;;22.77;100.00
65190;BME280;51777;53.570;9.984;2023-09-08T08:00:29;101763.75;;;23.04;100.00
65190;BME280;51777;53.570;9.984;2023-09-08T08:02:55;101769.84;;;23.25;100.00
65190;BME280;51777;53.570;9.984;2023-09-08T08:05:21;101773.91;;;23.34;100.00
65190;BME280;51777;53.570;9.984;2023-09-08T08:07:47;101778.34;;;23.47;100.00
65190;BME280;51777;53.570;9.984;2023-09-08T08:10:15;101779.94;;;23.74;100.00
65190;BME280;51777;53.570;9.984;2023-09-08T08:12:42;101784.38;;;23.80;100.00
65190;BME280;51777;53.570;9.984;2023-09-08T08:15:08;101779.91;;;23.94;100.00
65190;BME280;51777;53.570;9.984;2023-09-08T08:17:35;101772.91;;;24.19;100.00
65190;BME280;51777;53.570;9.984;2023-09-08T08:20:02;101782.00;;;24.30;100.00
65190;BME280;51777;53.570;9.984;2023-09-08T08:22:33;101780.13;;;25.00;100.00
65190;BME280;51777;53.570;9.984;2023-09-08T08:25:00;101789.41;;;27.63;100.00
65190;BME280;51777;53.570;9.984;2023-09-08T08:27:26;101817.50;;;31.57;98.57
65190;BME280;51777;53.570;9.984;2023-09-08T08:29:51;101838.56;;;34.83;93.70
65190;BME280;51777;53.570;9.984;2023-09-08T08:32:17;101847.63;;;36.73;91.51
65190;BME280;51777;53.570;9.984;2023-09-08T08:34:43;101846.38;;;37.30;89.60
65190;BME280;51777;53.570;9.984;2023-09-08T08:37:10;101857.44;;;38.47;87.68
65190;BME280;51777;53.570;9.984;2023-09-08T08:39:36;101861.03;;;38.21;87.55
65190;BME280;51777;53.570;9.984;2023-09-08T08:42:08;101856.00;;;39.26;86.75
65190;BME280;51777;53.570;9.984;2023-09-08T08:44:34;101853.00;;;38.96;87.17
65190;BME280;51777;53.570;9.984;2023-09-08T08:47:02;101859.28;;;40.19;85.66
65190;BME280;51777;53.570;9.984;2023-09-08T08:49:31;101858.28;;;42.03;84.10
65190;BME280;51777;53.570;9.984;2023-09-08T08:51:57;101858.72;;;41.92;82.97
65190;BME280;51777;53.570;9.984;2023-09-08T08:54:24;101867.25;;;42.24;82.76
65190;BME280;51777;53.570;9.984;2023-09-08T08:56:50;101858.34;;;42.36;82.88
65190;BME280;51777;53.570;9.984;2023-09-08T08:59:15;101848.88;;;41.20;84.58
65190;BME280;51777;53.570;9.984;2023-09-08T09:01:41;101846.63;;;41.22;84.94
65190;BME280;51777;53.570;9.984;2023-09-08T09:04:07;101854.03;;;42.35;83.83
65190;BME280;51777;53.570;9.984;2023-09-08T09:06:33;101850.09;;;42.32;83.74
65190;BME280;51777;53.570;9.984;2023-09-08T09:08:59;101860.19;;;42.77;82.67
65190;BME280;51777;53.570;9.984;2023-09-08T09:11:25;101854.22;;;42.50;82.68
65190;BME280;51777;53.570;9.984;2023-09-08T09:13:50;101858.22;;;43.72;82.38
65190;BME280;51777;53.570;9.984;2023-09-08T09:16:16;101867.78;;;44.34;81.54
65190;BME280;51777;53.570;9.984;2023-09-08T09:18:55;101867.91;;;45.28;80.35
65190;BME280;51777;53.570;9.984;2023-09-08T09:21:21;101871.25;;;45.92;80.07
65190;BME280;51777;53.570;9.984;2023-09-08T09:23:46;101866.44;;;43.87;81.10
65190;BME280;51777;53.570;9.984;2023-09-08T09:26:22;101852.53;;;43.16;81.48
65190;BME280;51777;53.570;9.984;2023-09-08T09:28:49;101844.00;;;42.14;82.76
65190;BME280;51777;53.570;9.984;2023-09-08T09:31:14;101843.97;;;41.73;83.59
65190;BME280;51777;53.570;9.984;2023-09-08T09:33:40;101833.66;;;40.90;83.88
65190;BME280;51777;53.570;9.984;2023-09-08T09:36:05;101829.53;;;42.02;83.31
65190;BME280;51777;53.570;9.984;2023-09-08T09:38:34;101830.13;;;42.73;82.82
65190;BME280;51777;53.570;9.984;2023-09-08T09:41:00;101832.53;;;42.87;82.58
65190;BME280;51777;53.570;9.984;2023-09-08T09:43:27;101835.63;;;42.98;82.13
65190;BME280;51777;53.570;9.984;2023-09-08T09:45:53;101827.75;;;42.06;82.81
65190;BME280;51777;53.570;9.984;2023-09-08T09:48:20;101825.41;;;40.69;84.48
65190;BME280;51777;53.570;9.984;2023-09-08T09:50:46;101820.69;;;42.05;83.27
65190;BME280;51777;53.570;9.984;2023-09-08T09:53:13;101824.84;;;42.11;83.21
65190;BME280;51777;53.570;9.984;2023-09-08T09:55:44;101820.19;;;42.11;83.43
65190;BME280;51777;53.570;9.984;2023-09-08T09:58:10;101814.22;;;41.26;83.79
65190;BME280;51777;53.570;9.984;2023-09-08T10:00:36;101817.56;;;41.82;84.00
65190;BME280;51777;53.570;9.984;2023-09-08T10:03:06;101799.03;;;40.95;83.90
65190;BME280;51777;53.570;9.984;2023-09-08T10:05:31;101794.97;;;39.59;85.38
65190;BME280;51777;53.570;9.984;2023-09-08T10:07:57;101795.63;;;39.74;85.71
65190;BME280;51777;53.570;9.984;2023-09-08T10:10:26;101794.34;;;40.40;85.53
65190;BME280;51777;53.570;9.984;2023-09-08T10:12:53;101786.75;;;38.94;86.34
65190;BME280;51777;53.570;9.984;2023-09-08T10:15:22;101790.00;;;39.04;87.15
65190;BME280;51777;53.570;9.984;2023-09-08T10:17:56;101797.78;;;39.46;86.78
65190;BME280;51777;53.570;9.984;2023-09-08T10:20:27;101789.25;;;39.61;86.43
65190;BME280;51777;53.570;9.984;2023-09-08T10:23:16;101783.03;;;38.72;87.18
65190;BME280;51777;53.570;9.984;2023-09-08T10:25:46;101790.47;;;38.67;87.46
65190;BME280;51777;53.570;9.984;2023-09-08T10:28:18;101774.97;;;38.14;88.56
65190;BME280;51777;53.570;9.984;2023-09-08T10:30:44;101773.81;;;38.73;88.04
65190;BME280;51777;53.570;9.984;2023-09-08T10:33:10;101774.50;;;39.27;87.34
65190;BME280;51777;53.570;9.984;2023-09-08T10:35:36;101781.41;;;39.02;87.18
65190;BME280;51777;53.570;9.984;2023-09-08T10:38:24;101767.28;;;37.57;88.39
65190;BME280;51777;53.570;9.984;2023-09-08T10:40:51;101762.38;;;36.77;90.20
65190;BME280;51777;53.570;9.984;2023-09-08T10:43:18;101763.94;;;36.64;90.11
65190;BME280;51777;53.570;9.984;2023-09-08T10:45:45;101755.31;;;37.50;89.72
65190;BME280;51777;53.570;9.984;2023-09-08T10:48:12;101756.34;;;37.40;89.36
65190;BME280;51777;53.570;9.984;2023-09-08T10:50:40;101751.78;;;36.81;90.09
65190;BME280;51777;53.570;9.984;2023-09-08T10:53:17;101754.03;;;37.06;89.72
65190;BME280;51777;53.570;9.984;2023-09-08T10:55:43;101752.34;;;37.38;88.91
65190;BME280;51777;53.570;9.984;2023-09-08T10:58:20;101753.78;;;37.85;89.33
65190;BME280;51777;53.570;9.984;2023-09-08T11:00:48;101747.44;;;37.40;89.18
65190;BME280;51777;53.570;9.984;2023-09-08T11:03:42;101750.63;;;37.91;89.17
65190;BME280;51777;53.570;9.984;2023-09-08T11:06:08;101745.13;;;37.97;89.35
65190;BME280;51777;53.570;9.984;2023-09-08T11:08:38;101745.97;;;37.83;88.55
65190;BME280;51777;53.570;9.984;2023-09-08T11:11:03;101750.56;;;37.69;89.08
65190;BME280;51777;53.570;9.984;2023-09-08T11:13:29;101743.59;;;37.54;89.23
65190;BME280;51777;53.570;9.984;2023-09-08T11:15:55;101746.94;;;37.38;89.36
65190;BME280;51777;53.570;9.984;2023-09-08T11:18:30;101732.28;;;37.66;89.50
65190;BME280;51777;53.570;9.984;2023-09-08T11:20:57;101742.41;;;38.19;89.37
65190;BME280;51777;53.570;9.984;2023-09-08T11:23:23;101739.97;;;38.31;88.46
65190;BME280;51777;53.570;9.984;2023-09-08T11:25:50;101735.63;;;37.49;89.72
65190;BME280;51777;53.570;9.984;2023-09-08T11:28:20;101739.56;;;37.79;89.30
65190;BME280;51777;53.570;9.984;2023-09-08T11:30:47;101728.88;;;37.11;89.64
65190;BME280;51777;53.570;9.984;2023-09-08T11:33:19;101723.84;;;37.31;89.77
65190;BME280;51777;53.570;9.984;2023-09-08T11:35:48;101724.19;;;37.66;89.44
65190;BME280;51777;53.570;9.984;2023-09-08T11:38:13;101735.97;;;38.06;89.03
65190;BME280;51777;53.570;9.984;2023-09-08T11:40:39;101727.56;;;37.85;89.29
65190;BME280;51777;53.570;9.984;2023-09-08T11:43:06;101726.41;;;37.64;88.65
65190;BME280;51777;53.570;9.984;2023-09-08T11:45:34;101726.97;;;37.39;89.17
65190;BME280;51777;53.570;9.984;2023-09-08T11:48:00;101730.06;;;37.82;89.37
65190;BME280;51777;53.570;9.984;2023-09-08T11:50:25;101720.88;;;37.69;88.98
65190;BME280;51777;53.570;9.984;2023-09-08T11:52:52;101724.72;;;37.90;89.83
65190;BME280;51777;53.570;9.984;2023-09-08T11:55:19;101729.31;;;38.26;89.01
65190;BME280;51777;53.570;9.984;2023-09-08T11:58:03;101722.28;;;38.47;88.54
65190;BME280;51777;53.570;9.984;2023-09-08T12:00:29;101717.56;;;37.86;89.40
65190;BME280;51777;53.570;9.984;2023-09-08T12:02:55;101715.47;;;38.05;89.17
65190;BME280;51777;53.570;9.984;2023-09-08T12:05:28;101726.44;;;38.23;89.08
65190;BME280;51777;53.570;9.984;2023-09-08T12:07:55;101715.94;;;38.52;88.01
65190;BME280;51777;53.570;9.984;2023-09-08T12:10:22;101715.78;;;38.88;88.29
65190;BME280;51777;53.570;9.984;2023-09-08T12:12:54;101719.81;;;39.74;87.31
65190;BME280;51777;53.570;9.984;2023-09-08T12:18:03;101717.66;;;38.48;87.86
65190;BME280;51777;53.570;9.984;2023-09-08T12:20:33;101714.66;;;38.49;88.30
65190;BME280;51777;53.570;9.984;2023-09-08T12:23:01;101718.75;;;39.18;87.71
65190;BME280;51777;53.570;9.984;2023-09-08T12:25:27;101719.78;;;39.56;87.17
65190;BME280;51777;53.570;9.984;2023-09-08T12:28:00;101714.22;;;39.61;86.45
65190;BME280;51777;53.570;9.984;2023-09-08T12:30:26;101712.16;;;39.58;86.10
65190;BME280;51777;53.570;9.984;2023-09-08T12:32:56;101708.13;;;39.21;86.91
65190;BME280;51777;53.570;9.984;2023-09-08T12:35:23;101698.25;;;39.43;86.45
65190;BME280;51777;53.570;9.984;2023-09-08T12:37:59;101691.72;;;39.35;86.48
65190;BME280;51777;53.570;9.984;2023-09-08T12:40:26;101697.81;;;38.92;86.40
65190;BME280;51777;53.570;9.984;2023-09-08T12:42:52;101700.22;;;40.58;85.16
65190;BME280;51777;53.570;9.984;2023-09-08T12:45:20;101693.41;;;40.82;85.44